Airfield :
LOGIN :

Register | Disclaimer

   EN    FR    IT 

 










Legend :    VFR   Marginal VFR   IFR   Intensive IFR   Very Intensive IFR
Visi :
Ceiling :
>= 8 km
>= 3000ft
5 to 8 km
1000 to 3000 ft
1500m to 5 km
500 to 1000 ft
800 to 1500m
200 to 500 ft
< 800m
< 200 ft
Symbols :   Thunderstorms  Fog  Heavy snow  Heavy precipitations  Wind > 20 kt
SIGMETs :     Misc.  Thunderstorms  Icing  Turbulence  Mountain Waves  Volcanic Ashes






- Airport Elevation : 1411 ft
- IATA code : SZG


LOWS - Salzburg

CURRENT METAR :
  • 201550Z 07008KT 9999 FEW050 24/13 Q1008 NOSIG

EXPIRED METARs :
  • 201520Z 04012KT 9999 FEW050 23/12 Q1008 NOSIG
  • 201450Z 02011KT 9999 FEW050 FEW050CB 24/12 Q1009 NOSIG
  • 201420Z 03010KT 9999 FEW050 FEW050TCU 24/12 Q1009 NOSIG
  • 201350Z 03009KT 9999 FEW050 FEW050TCU 24/13 Q1009 NOSIG
  • 201320Z 02011KT 9999 FEW050 FEW050TCU 23/11 Q1009 NOSIG
  • 201250Z 04009KT 9999 FEW050 FEW050TCU 24/11 Q1010 NOSIG
  • 201220Z 02008KT 9999 FEW045 23/13 Q1010 NOSIG
  • 201150Z 36009KT 9999 FEW050 23/14 Q1010 NOSIG
  • 201120Z 04008KT 010V070 9999 FEW050 23/14 Q1011 NOSIG

TAF TAF LOWS
Valid from the 20 at 12:00 until the 21 at 12:00 UTC


201115Z 2012/2112 02007KT 9999 SCT050 TX24/2013Z TN13/2103Z
TEMPO 2015/2020 FEW060CB
PROB30
TEMPO 2017/2020 25015G25KT -TSRA
BECMG 2020/2022 15006KT
TEMPO 2103/2109 -SHRA SCT050 BKN090
BECMG 2107/2109 29006KT
TEMPO 2109/2112 32012KT SHRA SCT040 FEW050CB



MET'MAP, your aeronautical weather chart ! - Copyright ORBIFLY December 2007 - Disclaimer

ORBIFLY MET'MAP TEAM :

Programming & Development : Alexandra Zaïnal
Original concept : Baudouin d'Aumeries
Technical & hardware support : Manuel Goepfert
Assistance : Marc-Olivier Méhu




SOURCES & CREDITS :

   NOAA